createdAt,value
2023-04-26T00:01:27.565Z,56.77
2023-04-26T00:04:00.835Z,56.12
2023-04-26T00:06:33.598Z,55.13
2023-04-26T00:09:06.818Z,55.06
2023-04-26T00:11:39.406Z,55.28
2023-04-26T00:14:11.893Z,55.45
2023-04-26T00:16:44.242Z,56.59
2023-04-26T00:19:17.962Z,56.43
2023-04-26T00:21:50.644Z,56.94
2023-04-26T00:24:22.910Z,57.55
2023-04-26T00:26:57.510Z,57.20
2023-04-26T00:29:29.899Z,56.91
2023-04-26T00:32:02.351Z,56.91
2023-04-26T00:34:39.914Z,56.90
2023-04-26T00:37:12.511Z,57.28
2023-04-26T00:39:44.938Z,56.70
2023-04-26T00:42:17.552Z,56.33
2023-04-26T00:44:51.425Z,56.33
2023-04-26T00:47:24.103Z,56.10
2023-04-26T00:49:56.763Z,56.50
2023-04-26T00:52:29.100Z,56.08
2023-04-26T00:55:02.512Z,55.84
2023-04-26T00:57:35.679Z,55.75
2023-04-26T01:00:10.525Z,55.45
2023-04-26T01:02:43.609Z,55.45
2023-04-26T01:05:16.655Z,55.82
2023-04-26T01:07:51.128Z,55.99
2023-04-26T01:10:24.217Z,55.48
2023-04-26T01:12:57.946Z,55.53
2023-04-26T01:15:33.511Z,55.58
2023-04-26T01:18:06.104Z,55.73
2023-04-26T01:20:40.009Z,55.70
2023-04-26T01:23:13.023Z,55.83
2023-04-26T01:25:45.901Z,55.68
2023-04-26T01:28:18.646Z,56.00
2023-04-26T01:30:51.742Z,55.68
2023-04-26T01:33:24.092Z,55.76
2023-04-26T01:35:57.879Z,55.63
2023-04-26T01:38:30.119Z,56.10
2023-04-26T01:41:02.374Z,56.05
2023-04-26T01:43:35.575Z,56.06
2023-04-26T01:46:08.592Z,56.46
2023-04-26T01:48:41.370Z,56.63
2023-04-26T01:51:13.957Z,56.34
2023-04-26T01:53:46.185Z,56.82
2023-04-26T01:56:18.623Z,56.48
2023-04-26T01:58:51.535Z,56.61
2023-04-26T02:01:24.284Z,56.61
2023-04-26T02:03:56.543Z,56.24
2023-04-26T02:06:29.073Z,56.62
2023-04-26T02:09:01.756Z,56.18
2023-04-26T02:11:34.509Z,56.52
2023-04-26T02:14:06.975Z,56.50
2023-04-26T02:16:40.548Z,56.69
2023-04-26T02:19:13.674Z,56.48
2023-04-26T02:21:58.110Z,56.69
2023-04-26T02:24:31.820Z,56.57
2023-04-26T02:27:05.685Z,56.55
2023-04-26T02:29:44.140Z,56.80
2023-04-26T02:42:35.041Z,57.57
2023-04-26T02:45:09.533Z,57.33
2023-04-26T02:47:42.780Z,57.28
2023-04-26T02:50:16.053Z,57.26
2023-04-26T02:52:48.979Z,57.33
2023-04-26T02:55:22.256Z,57.56
2023-04-26T02:57:54.449Z,57.66
2023-04-26T03:00:27.965Z,57.87
2023-04-26T03:03:00.349Z,57.64
2023-04-26T03:05:32.900Z,57.73
2023-04-26T03:08:07.321Z,58.14
2023-04-26T03:10:39.668Z,57.96
2023-04-26T03:13:12.085Z,57.84
2023-04-26T03:15:50.048Z,57.60
2023-04-26T03:18:22.742Z,58.04
2023-04-26T03:20:55.519Z,58.46
2023-04-26T03:23:28.774Z,58.18
2023-04-26T03:26:01.849Z,58.18
2023-04-26T03:28:34.668Z,58.83
2023-04-26T03:31:07.693Z,58.93
2023-04-26T03:33:40.128Z,58.55
2023-04-26T03:36:12.914Z,58.53
2023-04-26T03:38:45.070Z,59.01
2023-04-26T03:41:18.451Z,58.96
2023-04-26T03:43:51.122Z,59.04
2023-04-26T03:46:24.156Z,59.33
2023-04-26T03:48:57.281Z,59.38
2023-04-26T03:51:31.548Z,59.41
2023-04-26T03:54:04.040Z,59.34
2023-04-26T03:56:36.776Z,59.77
2023-04-26T03:59:10.360Z,59.76
2023-04-26T04:01:42.985Z,59.68
2023-04-26T04:04:15.500Z,59.81
2023-04-26T04:06:49.396Z,59.72
2023-04-26T04:09:21.880Z,59.47
2023-04-26T04:11:55.054Z,59.46
2023-04-26T04:14:27.402Z,59.51
2023-04-26T04:17:01.431Z,59.96
2023-04-26T04:19:35.280Z,60.56
2023-04-26T04:22:07.733Z,60.58
2023-04-26T04:24:41.103Z,60.46
2023-04-26T04:27:14.170Z,60.12
2023-04-26T04:29:47.955Z,59.85
2023-04-26T04:32:20.862Z,60.03
2023-04-26T04:34:53.989Z,60.06
2023-04-26T04:37:27.135Z,60.86
2023-04-26T04:39:59.794Z,60.18
2023-04-26T04:42:32.465Z,60.49
2023-04-26T04:45:07.536Z,60.64
2023-04-26T04:47:42.193Z,60.38
2023-04-26T04:50:16.200Z,60.59
2023-04-26T04:52:50.054Z,60.76
2023-04-26T04:55:22.858Z,60.59
2023-04-26T04:57:55.336Z,60.97
2023-04-26T05:00:28.919Z,61.13
2023-04-26T05:03:10.234Z,61.66
2023-04-26T05:05:42.923Z,61.26
2023-04-26T05:08:15.571Z,61.34
2023-04-26T05:10:48.910Z,61.42
2023-04-26T05:13:21.753Z,61.22
2023-04-26T05:15:54.255Z,60.95
2023-04-26T05:18:27.189Z,61.30
2023-04-26T05:21:00.201Z,61.64
2023-04-26T05:23:34.715Z,61.59
2023-04-26T05:26:09.027Z,61.18
2023-04-26T05:28:57.678Z,61.47
2023-04-26T05:31:36.894Z,61.74
2023-04-26T05:34:27.969Z,62.28
2023-04-26T05:37:03.622Z,61.89
2023-04-26T05:39:36.203Z,62.08
2023-04-26T05:42:08.838Z,62.17
2023-04-26T05:44:41.629Z,62.37
2023-04-26T05:47:14.812Z,62.20
2023-04-26T05:49:47.869Z,62.28
2023-04-26T05:52:20.695Z,62.57
2023-04-26T05:54:53.572Z,62.58
2023-04-26T05:57:26.294Z,62.91
2023-04-26T05:59:59.579Z,62.84
2023-04-26T06:02:32.348Z,62.64
2023-04-26T06:05:06.675Z,62.46
2023-04-26T06:07:39.622Z,62.07
2023-04-26T06:10:13.612Z,61.96
2023-04-26T06:12:46.924Z,61.18
2023-04-26T06:15:19.877Z,60.90
2023-04-26T06:17:52.484Z,60.79
2023-04-26T06:20:25.378Z,60.13
2023-04-26T06:22:58.417Z,60.08
2023-04-26T06:25:30.992Z,60.14
2023-04-26T06:28:04.073Z,59.95
2023-04-26T06:30:37.131Z,59.90
2023-04-26T06:33:10.157Z,59.92
2023-04-26T06:35:42.948Z,59.42
2023-04-26T06:38:16.553Z,59.33
2023-04-26T06:40:49.211Z,59.33
2023-04-26T06:43:21.966Z,59.27
2023-04-26T06:46:03.127Z,59.01
2023-04-26T06:48:35.736Z,59.10
2023-04-26T06:51:11.074Z,58.76
2023-04-26T06:53:42.596Z,58.65
2023-04-26T06:56:15.382Z,58.53
2023-04-26T06:59:01.642Z,58.23
2023-04-26T07:01:35.294Z,57.52
2023-04-26T07:04:10.792Z,57.26
2023-04-26T07:06:44.013Z,57.06
2023-04-26T07:09:17.008Z,56.54
2023-04-26T07:11:50.571Z,56.63
2023-04-26T07:14:23.367Z,56.54
2023-04-26T07:16:56.066Z,56.67
2023-04-26T07:19:28.298Z,56.36
2023-04-26T07:22:01.490Z,56.31
2023-04-26T07:24:34.143Z,55.43
2023-04-26T07:27:06.927Z,54.73
2023-04-26T07:29:39.774Z,54.88
2023-04-26T07:32:12.179Z,54.85
2023-04-26T07:34:44.767Z,54.75
2023-04-26T07:37:17.587Z,54.59
2023-04-26T07:39:50.155Z,54.71
2023-04-26T07:42:22.720Z,54.46
2023-04-26T07:44:55.310Z,54.24
2023-04-26T07:47:27.833Z,54.10
2023-04-26T07:49:59.867Z,53.42
2023-04-26T07:52:32.521Z,54.68
2023-04-26T07:55:05.583Z,53.91
2023-04-26T07:57:37.973Z,53.01
2023-04-26T08:00:13.128Z,53.78
2023-04-26T08:02:46.839Z,54.18
2023-04-26T08:05:20.231Z,53.30
2023-04-26T08:07:52.909Z,52.52
2023-04-26T08:10:25.393Z,52.07
2023-04-26T08:12:57.690Z,51.44
2023-04-26T08:15:30.273Z,51.90
2023-04-26T08:18:03.025Z,51.06
2023-04-26T08:20:35.527Z,50.79
2023-04-26T08:23:08.332Z,50.94
2023-04-26T08:25:41.153Z,50.63
2023-04-26T08:28:14.673Z,50.08
2023-04-26T08:30:47.319Z,49.28
2023-04-26T08:33:20.903Z,49.46
2023-04-26T08:35:52.938Z,50.11
2023-04-26T08:38:25.594Z,50.51
2023-04-26T08:41:01.966Z,51.33
2023-04-26T08:43:37.991Z,49.98
2023-04-26T08:46:16.857Z,49.02
2023-04-26T08:48:56.291Z,48.06
2023-04-26T08:51:29.937Z,47.84
2023-04-26T08:54:04.728Z,46.52
2023-04-26T08:56:39.406Z,46.60
2023-04-26T08:59:13.264Z,47.36
2023-04-26T09:01:47.118Z,46.62
2023-04-26T09:04:20.433Z,46.99
2023-04-26T09:06:54.788Z,46.57
2023-04-26T09:09:29.688Z,46.18
2023-04-26T09:12:03.504Z,44.97
2023-04-26T09:14:36.294Z,44.51
2023-04-26T09:17:25.679Z,43.97
2023-04-26T09:19:58.439Z,43.66
2023-04-26T09:22:35.942Z,43.62
2023-04-26T09:25:10.061Z,42.86
2023-04-26T09:27:45.010Z,43.29
2023-04-26T09:30:20.952Z,43.53
2023-04-26T09:32:55.937Z,43.31
2023-04-26T09:35:33.122Z,43.32
2023-04-26T09:38:12.210Z,42.90
2023-04-26T09:40:47.692Z,43.25
2023-04-26T09:43:21.885Z,43.69
2023-04-26T09:45:56.303Z,43.20
2023-04-26T09:48:30.973Z,43.22
2023-04-26T09:51:12.245Z,43.89
2023-04-26T09:53:50.266Z,43.27
2023-04-26T09:56:23.727Z,43.44
2023-04-26T09:59:01.585Z,43.91
2023-04-26T10:01:35.149Z,44.02
2023-04-26T10:04:09.959Z,44.21
2023-04-26T10:06:42.195Z,44.63
2023-04-26T10:09:16.042Z,44.78
2023-04-26T10:11:48.700Z,44.40
2023-04-26T10:14:21.786Z,45.07
2023-04-26T10:16:55.983Z,44.65
2023-04-26T10:19:28.486Z,44.22
2023-04-26T10:22:05.344Z,43.80
2023-04-26T10:24:39.399Z,43.29
2023-04-26T10:27:11.975Z,42.64
2023-04-26T10:30:10.422Z,42.91
2023-04-26T10:33:22.318Z,42.34
2023-04-26T10:36:09.486Z,43.09
2023-04-26T10:38:43.621Z,42.45
2023-04-26T10:41:36.629Z,41.89
2023-04-26T10:44:45.121Z,40.16
2023-04-26T10:47:29.447Z,39.92
2023-04-26T10:50:10.696Z,40.38
2023-04-26T10:53:09.141Z,40.64
2023-04-26T10:55:44.894Z,40.30
2023-04-26T10:58:42.264Z,39.72
2023-04-26T11:01:21.356Z,39.26
2023-04-26T11:04:11.654Z,39.94
2023-04-26T11:06:55.705Z,40.02
2023-04-26T11:09:39.507Z,39.85
2023-04-26T11:12:14.358Z,40.09
2023-04-26T11:14:46.133Z,38.93
2023-04-26T11:17:20.052Z,38.85
2023-04-26T11:19:52.432Z,39.61
2023-04-26T11:22:26.194Z,39.98
2023-04-26T11:25:01.337Z,40.17
2023-04-26T11:27:33.749Z,40.64
2023-04-26T11:30:08.955Z,40.18
2023-04-26T11:32:41.504Z,39.53
2023-04-26T11:35:14.146Z,39.91
2023-04-26T11:37:49.504Z,39.97
2023-04-26T11:40:22.466Z,40.00
2023-04-26T11:42:54.844Z,40.10
2023-04-26T11:45:27.650Z,40.63
2023-04-26T11:48:01.370Z,41.28
2023-04-26T11:50:34.721Z,41.34
2023-04-26T11:53:09.072Z,41.48
2023-04-26T11:55:42.532Z,41.20
2023-04-26T11:58:16.210Z,40.97
2023-04-26T12:01:02.972Z,41.13
2023-04-26T12:03:38.188Z,40.81
2023-04-26T12:06:10.885Z,41.04
2023-04-26T12:08:43.697Z,41.45
2023-04-26T12:11:20.045Z,40.80
2023-04-26T12:13:52.228Z,39.62
2023-04-26T12:16:27.067Z,39.73
2023-04-26T12:18:59.872Z,40.43
2023-04-26T12:21:41.255Z,40.53
2023-04-26T12:24:29.904Z,41.54
2023-04-26T12:27:02.987Z,41.35
2023-04-26T12:29:36.297Z,40.89
2023-04-26T12:32:09.289Z,40.66
2023-04-26T12:34:42.430Z,40.75
2023-04-26T12:37:15.558Z,40.60
2023-04-26T12:39:48.299Z,39.92
2023-04-26T12:42:21.154Z,38.85
2023-04-26T12:44:53.693Z,38.46
2023-04-26T12:47:26.683Z,38.59
2023-04-26T12:50:01.219Z,38.29
2023-04-26T12:52:34.041Z,38.64
2023-04-26T12:55:07.366Z,39.37
2023-04-26T12:57:41.957Z,39.87
2023-04-26T13:00:17.640Z,40.21
2023-04-26T13:02:50.246Z,40.67
2023-04-26T13:05:24.750Z,40.20
2023-04-26T13:07:57.434Z,39.64
2023-04-26T13:10:30.081Z,38.80
2023-04-26T13:13:03.011Z,37.91
2023-04-26T13:15:35.507Z,38.30
2023-04-26T13:18:08.205Z,38.29
2023-04-26T13:20:40.482Z,38.54
2023-04-26T13:23:12.872Z,38.25
2023-04-26T13:25:46.007Z,37.86
2023-04-26T13:28:18.671Z,38.11
2023-04-26T13:30:52.549Z,38.56
2023-04-26T13:33:25.730Z,39.04
2023-04-26T13:35:58.830Z,39.67
2023-04-26T13:38:32.847Z,39.78
2023-04-26T13:41:05.618Z,40.28
2023-04-26T13:43:38.241Z,40.86
2023-04-26T13:46:10.932Z,41.17
2023-04-26T13:48:44.662Z,40.81
2023-04-26T13:51:17.382Z,39.76
2023-04-26T13:53:50.066Z,40.21
2023-04-26T13:56:24.004Z,38.72
2023-04-26T13:59:00.177Z,37.66
2023-04-26T14:01:34.583Z,37.54
2023-04-26T14:04:11.015Z,37.31
2023-04-26T14:06:44.296Z,37.46
2023-04-26T14:09:17.527Z,36.87
2023-04-26T14:12:06.469Z,37.83
2023-04-26T14:14:41.064Z,37.59
2023-04-26T14:17:14.188Z,37.80
2023-04-26T14:19:46.893Z,37.98
2023-04-26T14:22:19.871Z,39.12
2023-04-26T14:24:52.372Z,39.00
2023-04-26T14:27:24.773Z,39.55
2023-04-26T14:29:57.291Z,40.21
2023-04-26T14:32:30.279Z,39.89
2023-04-26T14:35:02.961Z,40.13
2023-04-26T14:37:35.834Z,40.59
2023-04-26T14:40:11.066Z,40.43
2023-04-26T14:42:46.114Z,40.63
2023-04-26T14:45:19.724Z,40.41
2023-04-26T14:47:52.173Z,40.13
2023-04-26T14:50:25.177Z,39.77
2023-04-26T14:52:57.779Z,38.46
2023-04-26T14:55:30.781Z,37.65
2023-04-26T14:58:03.561Z,37.41
2023-04-26T15:00:36.287Z,38.33
2023-04-26T15:03:09.069Z,39.43
2023-04-26T15:05:41.679Z,38.99
2023-04-26T15:08:14.858Z,39.09
2023-04-26T15:10:47.581Z,40.03
2023-04-26T15:13:20.051Z,39.92
2023-04-26T15:15:52.998Z,39.87
2023-04-26T15:18:25.532Z,40.19
2023-04-26T15:20:58.125Z,40.22
2023-04-26T15:23:30.474Z,39.02
2023-04-26T15:26:06.311Z,38.76
2023-04-26T15:28:38.679Z,39.35
2023-04-26T15:31:12.879Z,39.92
2023-04-26T15:33:45.340Z,39.83
2023-04-26T15:36:19.912Z,40.15
2023-04-26T15:38:51.312Z,39.87
2023-04-26T15:41:24.407Z,39.83
2023-04-26T15:43:57.656Z,39.99
2023-04-26T15:46:30.173Z,40.28
2023-04-26T15:49:03.792Z,40.42
2023-04-26T15:51:36.368Z,40.52
2023-04-26T15:54:09.332Z,40.07
2023-04-26T15:56:41.776Z,39.52
2023-04-26T15:59:14.259Z,39.55
2023-04-26T16:01:46.907Z,39.41
2023-04-26T16:04:19.906Z,39.53
2023-04-26T16:06:52.600Z,39.56
2023-04-26T16:09:26.106Z,39.42
2023-04-26T16:11:58.773Z,39.93
2023-04-26T16:14:31.691Z,40.59
2023-04-26T16:17:05.202Z,41.12
2023-04-26T16:19:38.506Z,42.25
2023-04-26T16:22:10.997Z,43.65
2023-04-26T16:24:43.364Z,46.07
2023-04-26T16:27:15.686Z,48.37
2023-04-26T16:29:48.654Z,49.22
2023-04-26T16:32:22.163Z,49.17
2023-04-26T16:34:54.840Z,48.24
2023-04-26T16:37:27.688Z,48.71
2023-04-26T16:40:00.627Z,48.94
2023-04-26T16:42:34.384Z,49.20
2023-04-26T16:45:07.912Z,49.05
2023-04-26T16:47:41.467Z,48.66
2023-04-26T16:50:14.727Z,48.68
2023-04-26T16:52:47.587Z,48.62
2023-04-26T16:55:20.492Z,47.52
2023-04-26T16:57:53.258Z,46.99
2023-04-26T17:00:26.618Z,45.91
2023-04-26T17:02:58.987Z,45.43
2023-04-26T17:05:31.391Z,45.19
2023-04-26T17:08:04.076Z,44.49
2023-04-26T17:10:38.341Z,44.25
2023-04-26T17:13:12.716Z,44.21
2023-04-26T17:15:46.237Z,44.80
2023-04-26T17:18:18.844Z,44.71
2023-04-26T17:20:53.936Z,45.00
2023-04-26T17:23:28.831Z,45.14
2023-04-26T17:26:01.893Z,45.61
2023-04-26T17:28:34.859Z,45.84
2023-04-26T17:31:07.593Z,45.66
2023-04-26T17:33:40.554Z,45.82
2023-04-26T17:36:13.014Z,45.44
2023-04-26T17:38:46.259Z,45.68
2023-04-26T17:41:19.113Z,45.75
2023-04-26T17:43:51.878Z,45.65
2023-04-26T17:46:24.498Z,45.82
2023-04-26T17:48:57.298Z,46.13
2023-04-26T17:51:30.132Z,46.16
2023-04-26T17:54:02.741Z,46.55
2023-04-26T17:56:35.411Z,46.21
2023-04-26T17:59:08.216Z,46.11
2023-04-26T18:01:40.801Z,46.20
2023-04-26T18:04:14.206Z,46.39
2023-04-26T18:06:47.506Z,46.56
2023-04-26T18:09:21.355Z,47.02
2023-04-26T18:11:54.359Z,47.12
2023-04-26T18:14:26.881Z,47.24
2023-04-26T18:16:59.790Z,47.38
2023-04-26T18:19:32.652Z,47.83
2023-04-26T18:22:05.198Z,47.67
2023-04-26T18:24:38.207Z,47.94
2023-04-26T18:27:14.088Z,48.18
2023-04-26T18:29:47.923Z,47.88
2023-04-26T18:32:20.681Z,48.04
2023-04-26T18:34:53.299Z,47.82
2023-04-26T18:37:26.068Z,48.29
2023-04-26T18:39:59.025Z,48.35
2023-04-26T18:42:32.024Z,48.17
2023-04-26T18:45:05.120Z,48.86
2023-04-26T18:47:38.046Z,49.06
2023-04-26T18:50:11.859Z,48.98
2023-04-26T18:52:45.017Z,48.96
2023-04-26T18:55:17.945Z,48.49
2023-04-26T18:57:50.607Z,48.78
2023-04-26T19:00:23.779Z,49.08
2023-04-26T19:02:56.349Z,48.50
2023-04-26T19:05:29.850Z,48.49
2023-04-26T19:08:02.721Z,48.65
2023-04-26T19:10:35.986Z,48.86
2023-04-26T19:13:09.398Z,49.24
2023-04-26T19:15:41.926Z,48.80
2023-04-26T19:18:14.533Z,48.68
2023-04-26T19:20:47.430Z,49.32
2023-04-26T19:23:20.154Z,49.33
2023-04-26T19:25:53.119Z,49.74
2023-04-26T19:28:25.720Z,49.88
2023-04-26T19:30:58.218Z,49.67
2023-04-26T19:33:31.391Z,49.66
2023-04-26T19:36:03.815Z,49.83
2023-04-26T19:38:36.111Z,50.22
2023-04-26T19:41:08.709Z,50.21
2023-04-26T19:43:41.473Z,50.31
2023-04-26T19:46:17.162Z,50.46
2023-04-26T19:48:49.668Z,50.61
2023-04-26T19:51:22.540Z,50.89
2023-04-26T19:53:55.009Z,50.98
2023-04-26T19:56:27.478Z,50.91
2023-04-26T19:59:00.178Z,51.29
2023-04-26T20:01:32.381Z,51.48
2023-04-26T20:04:04.811Z,51.88
2023-04-26T20:06:37.512Z,52.06
2023-04-26T20:09:10.922Z,52.44
2023-04-26T20:11:43.781Z,52.58
2023-04-26T20:14:16.992Z,52.52
2023-04-26T20:16:49.540Z,52.53
2023-04-26T20:19:22.153Z,52.69
2023-04-26T20:21:56.097Z,52.76
2023-04-26T20:24:29.229Z,52.81
2023-04-26T20:27:01.993Z,53.23
2023-04-26T20:29:34.861Z,53.22
2023-04-26T20:32:08.026Z,53.03
2023-04-26T20:34:40.739Z,53.04
2023-04-26T20:37:13.806Z,52.82
2023-04-26T20:39:47.325Z,52.89
2023-04-26T20:42:19.848Z,53.01
2023-04-26T20:44:53.084Z,52.80
2023-04-26T20:47:26.271Z,52.76
2023-04-26T20:49:58.441Z,52.67
2023-04-26T20:52:31.216Z,52.82
2023-04-26T20:55:04.026Z,52.80
2023-04-26T20:57:36.535Z,52.68
2023-04-26T21:00:11.711Z,53.07
2023-04-26T21:02:44.787Z,52.83
2023-04-26T21:05:17.551Z,52.90
2023-04-26T21:07:49.984Z,53.25
2023-04-26T21:10:22.174Z,53.59
2023-04-26T21:12:55.385Z,53.67
2023-04-26T21:15:28.434Z,53.34
2023-04-26T21:18:01.120Z,53.30
2023-04-26T21:20:33.282Z,53.54
2023-04-26T21:23:06.002Z,53.36
2023-04-26T21:25:38.222Z,53.10
2023-04-26T21:28:10.738Z,52.93
2023-04-26T21:30:43.469Z,53.27
2023-04-26T21:33:16.822Z,52.81
2023-04-26T21:35:49.322Z,53.09
2023-04-26T21:38:21.786Z,52.97
2023-04-26T21:40:53.963Z,53.37
2023-04-26T21:43:26.635Z,53.39
2023-04-26T21:45:59.908Z,53.22
2023-04-26T21:48:32.329Z,53.23
2023-04-26T21:51:05.011Z,53.55
2023-04-26T21:53:37.367Z,53.57
2023-04-26T21:56:10.945Z,53.35
2023-04-26T21:58:43.592Z,53.25
2023-04-26T22:01:17.896Z,53.45
2023-04-26T22:03:50.382Z,53.33
2023-04-26T22:06:22.585Z,53.55
2023-04-26T22:08:54.879Z,53.54
2023-04-26T22:11:28.062Z,53.64
2023-04-26T22:14:00.548Z,53.51
2023-04-26T22:16:33.530Z,53.47
2023-04-26T22:19:06.713Z,53.74
2023-04-26T22:21:39.908Z,53.90
2023-04-26T22:24:13.134Z,53.84
2023-04-26T22:26:45.570Z,53.89
2023-04-26T22:29:18.196Z,53.76
2023-04-26T22:31:50.852Z,53.78
2023-04-26T22:34:23.317Z,53.90
2023-04-26T22:37:01.244Z,54.02
2023-04-26T22:39:38.889Z,54.32
2023-04-26T22:42:11.297Z,54.15
2023-04-26T22:44:43.732Z,54.03
2023-04-26T22:47:18.369Z,54.02
2023-04-26T22:49:51.209Z,54.21
2023-04-26T22:52:31.459Z,54.09
2023-04-26T22:55:04.668Z,54.47
2023-04-26T22:57:37.619Z,54.35
2023-04-26T23:00:12.630Z,54.50
2023-04-26T23:02:45.398Z,54.45
2023-04-26T23:05:18.404Z,54.72
2023-04-26T23:07:51.401Z,54.81
2023-04-26T23:10:23.757Z,54.84
2023-04-26T23:12:56.660Z,55.04
2023-04-26T23:15:29.189Z,55.32
2023-04-26T23:18:02.181Z,55.22
2023-04-26T23:20:34.964Z,55.41
2023-04-26T23:23:07.725Z,55.83
2023-04-26T23:25:42.360Z,55.99
2023-04-26T23:28:14.884Z,55.97
2023-04-26T23:30:47.185Z,55.95
2023-04-26T23:33:19.649Z,56.26
2023-04-26T23:35:52.439Z,55.94
2023-04-26T23:38:25.092Z,55.94
2023-04-26T23:40:57.826Z,55.96
2023-04-26T23:43:30.246Z,55.96
2023-04-26T23:46:03.312Z,56.07
2023-04-26T23:48:36.065Z,56.19
2023-04-26T23:51:08.916Z,56.57
2023-04-26T23:53:41.714Z,56.51
2023-04-26T23:56:14.323Z,56.75
2023-04-26T23:58:46.652Z,56.95
